Padre Aldamiz Airport
SPTU : now visible

Airfield :











YOU CAN JOIN US ON...

 
LOGIN :

Register | Disclaimer

   EN    FR    IT 

 









Legend :    VFR   Marginal VFR   IFR   Intensive IFR   Very Intensive IFR
Visi :
Ceiling :
>= 8 km
>= 3000ft
5 to 8 km
1000 to 3000 ft
1500m to 5 km
500 to 1000 ft
800 to 1500m
200 to 500 ft
< 800m
< 200 ft
Symbols :   Thunderstorms  Fog  Heavy snow  Heavy precipitations  Wind > 20 kt






- Airport Elevation : 659 ft
- IATA code : PEM


SPTU - Padre Aldamiz

CURRENT METAR :
  • 202100Z 36003KT 290V060 9999 SCT020 29/25 Q1004 RMK BIRD HAZARD RWY 01/19 PP000

EXPIRED METARs :
  • 202000Z 33009KT 290V350 9999 BKN030 31/24 Q1004 RMK BIRD HAZARD RWY 01/19 PP000
  • 201900Z 02005KT 350V080 9999 SCT020 31/26 Q1005 RMK BIRD HAZARD RWY 01/19 PP000

TAF SPTU
Valid from the 20 at 18:00 until the 21 at 18:00 UTC


201700Z 2018/2118 33010KT 9999 FEW020 TX34/2019Z TN24/2111Z
TEMPO 2018/2023 BKN020
BECMG 2100/2102 00000KT 8000 RA SCT012 BKN100
FM210800 30002KT 5000 RA SCT010 OVC100



MET'MAP, your aeronautical weather chart ! - Copyright ORBIFLY December 2007 - Disclaimer

ORBIFLY MET'MAP TEAM :

Programming & Development : Alexandra Zaïnal
Concept & original design : Baudouin d'Aumeries
Assistance for programming : Marc-Olivier Méhu
Technical & hardware support : Manuel Goepfert

Contact : metmap@orbifly.com




SOURCES & CREDITS :

   NOAA       Earth
Advisory